Terminal Aerodrome Forecast
Issued by NWS Twin Cities, MN

Home | Current Version | Previous Version | Graphics & Text | Print | Product List | Glossary Off
Versions: 1 2 3 4 5 6 7 8 9 10 11 12 13 14 15 16 17 18 19 20 21 22 23 24 25 26 27 28 29 30 31

000
FTUS43 KMPX 211700
TAFMSP
TAF
KMSP 211735Z 2118/2224 15008KT 2SM -RASN BR OVC005
     FM212100 16012KT 3SM BR OVC006
     FM220100 15013KT 2SM BR OVC004
     FM220900 14013KT 2SM -DZ BR OVC005
     FM221500 13013KT 1 1/2SM -RA OVC006
     FM221800 12014KT 2SM -RASN OVC008=

USA.gov is the U.S. government's official web portal to all federal, state and local government web resources and services.